sensor_id;sensor_type;location;lat;lon;timestamp;temperature;humidity
53498;DHT22;39382;47.168;16.008;2023-03-05T00:01:23;-1.00;99.90
53498;DHT22;39382;47.168;16.008;2023-03-05T00:03:50;-1.00;99.90
53498;DHT22;39382;47.168;16.008;2023-03-05T00:06:20;-1.00;99.90
53498;DHT22;39382;47.168;16.008;2023-03-05T00:08:47;-1.00;99.90
53498;DHT22;39382;47.168;16.008;2023-03-05T00:11:13;-1.00;99.90
53498;DHT22;39382;47.168;16.008;2023-03-05T00:13:39;-1.10;99.90
53498;DHT22;39382;47.168;16.008;2023-03-05T00:16:08;-1.00;99.90
53498;DHT22;39382;47.168;16.008;2023-03-05T00:18:35;-1.00;99.90
53498;DHT22;39382;47.168;16.008;2023-03-05T00:21:01;-1.00;99.90
53498;DHT22;39382;47.168;16.008;2023-03-05T00:23:27;-1.00;99.90
53498;DHT22;39382;47.168;16.008;2023-03-05T00:25:52;-0.70;99.90
53498;DHT22;39382;47.168;16.008;2023-03-05T00:28:18;-1.10;99.90
53498;DHT22;39382;47.168;16.008;2023-03-05T00:30:44;-1.20;99.90
53498;DHT22;39382;47.168;16.008;2023-03-05T00:33:11;-1.10;99.90
53498;DHT22;39382;47.168;16.008;2023-03-05T00:35:41;-1.20;99.90
53498;DHT22;39382;47.168;16.008;2023-03-05T00:38:08;-1.20;99.90
53498;DHT22;39382;47.168;16.008;2023-03-05T00:40:35;-1.20;99.90
53498;DHT22;39382;47.168;16.008;2023-03-05T00:43:02;-1.20;99.90
53498;DHT22;39382;47.168;16.008;2023-03-05T00:45:28;-1.20;99.90
53498;DHT22;39382;47.168;16.008;2023-03-05T00:47:54;-0.70;99.90
53498;DHT22;39382;47.168;16.008;2023-03-05T00:50:19;-1.30;99.90
53498;DHT22;39382;47.168;16.008;2023-03-05T00:52:45;-1.30;99.90
53498;DHT22;39382;47.168;16.008;2023-03-05T00:55:10;-1.40;99.90
53498;DHT22;39382;47.168;16.008;2023-03-05T00:57:36;-1.40;99.90
53498;DHT22;39382;47.168;16.008;2023-03-05T01:00:03;-1.30;99.90
53498;DHT22;39382;47.168;16.008;2023-03-05T01:02:29;-1.40;99.90
53498;DHT22;39382;47.168;16.008;2023-03-05T01:04:55;-1.20;99.90
53498;DHT22;39382;47.168;16.008;2023-03-05T01:07:20;-1.40;99.90
53498;DHT22;39382;47.168;16.008;2023-03-05T01:09:46;-1.40;99.90
53498;DHT22;39382;47.168;16.008;2023-03-05T01:12:12;-1.30;99.90
53498;DHT22;39382;47.168;16.008;2023-03-05T01:14:37;-1.50;99.90
53498;DHT22;39382;47.168;16.008;2023-03-05T01:17:03;-1.40;99.90
53498;DHT22;39382;47.168;16.008;2023-03-05T01:19:29;-1.50;99.90
53498;DHT22;39382;47.168;16.008;2023-03-05T01:21:55;-1.50;99.90
53498;DHT22;39382;47.168;16.008;2023-03-05T01:24:21;-1.60;99.90
53498;DHT22;39382;47.168;16.008;2023-03-05T01:26:46;-1.50;99.90
53498;DHT22;39382;47.168;16.008;2023-03-05T01:29:14;-1.50;99.90
53498;DHT22;39382;47.168;16.008;2023-03-05T01:31:39;-1.50;99.90
53498;DHT22;39382;47.168;16.008;2023-03-05T01:34:05;-1.60;99.90
53498;DHT22;39382;47.168;16.008;2023-03-05T01:36:31;-1.60;99.90
53498;DHT22;39382;47.168;16.008;2023-03-05T01:38:57;-1.70;99.90
53498;DHT22;39382;47.168;16.008;2023-03-05T01:41:23;-1.70;99.90
53498;DHT22;39382;47.168;16.008;2023-03-05T01:43:49;-1.70;99.90
53498;DHT22;39382;47.168;16.008;2023-03-05T01:49:23;-1.80;99.90
53498;DHT22;39382;47.168;16.008;2023-03-05T01:52:15;-1.80;99.90
53498;DHT22;39382;47.168;16.008;2023-03-05T01:55:27;-1.90;99.90
53498;DHT22;39382;47.168;16.008;2023-03-05T01:57:50;-1.90;99.90
53498;DHT22;39382;47.168;16.008;2023-03-05T02:00:39;-1.90;99.90
53498;DHT22;39382;47.168;16.008;2023-03-05T02:03:07;-1.90;99.90
53498;DHT22;39382;47.168;16.008;2023-03-05T02:05:35;-1.90;99.90
53498;DHT22;39382;47.168;16.008;2023-03-05T02:08:05;-1.90;99.90
53498;DHT22;39382;47.168;16.008;2023-03-05T02:10:37;-2.00;99.90
53498;DHT22;39382;47.168;16.008;2023-03-05T02:13:06;-1.90;99.90
53498;DHT22;39382;47.168;16.008;2023-03-05T02:15:33;-1.90;99.90
53498;DHT22;39382;47.168;16.008;2023-03-05T02:17:59;-2.00;99.90
53498;DHT22;39382;47.168;16.008;2023-03-05T02:20:30;-2.00;99.90
53498;DHT22;39382;47.168;16.008;2023-03-05T02:22:56;-2.10;99.90
53498;DHT22;39382;47.168;16.008;2023-03-05T02:25:23;-2.10;99.90
53498;DHT22;39382;47.168;16.008;2023-03-05T02:30:33;-2.10;99.90
53498;DHT22;39382;47.168;16.008;2023-03-05T02:33:00;-2.10;99.90
53498;DHT22;39382;47.168;16.008;2023-03-05T02:35:26;-2.00;99.90
53498;DHT22;39382;47.168;16.008;2023-03-05T02:37:51;-2.10;99.90
53498;DHT22;39382;47.168;16.008;2023-03-05T02:40:17;-2.10;99.90
53498;DHT22;39382;47.168;16.008;2023-03-05T02:42:44;-2.10;99.90
53498;DHT22;39382;47.168;16.008;2023-03-05T02:45:11;-2.10;99.90
53498;DHT22;39382;47.168;16.008;2023-03-05T02:47:38;-2.20;99.90
53498;DHT22;39382;47.168;16.008;2023-03-05T02:50:04;-2.20;99.90
53498;DHT22;39382;47.168;16.008;2023-03-05T02:52:31;-2.10;99.90
53498;DHT22;39382;47.168;16.008;2023-03-05T02:54:57;-2.10;99.90
53498;DHT22;39382;47.168;16.008;2023-03-05T02:57:23;-2.20;99.90
53498;DHT22;39382;47.168;16.008;2023-03-05T02:59:49;-2.20;99.90
53498;DHT22;39382;47.168;16.008;2023-03-05T03:02:15;-2.20;99.90
53498;DHT22;39382;47.168;16.008;2023-03-05T03:04:42;-2.20;99.90
53498;DHT22;39382;47.168;16.008;2023-03-05T03:07:09;-2.10;99.90
53498;DHT22;39382;47.168;16.008;2023-03-05T03:09:35;-2.10;99.90
53498;DHT22;39382;47.168;16.008;2023-03-05T03:12:01;-2.30;99.90
53498;DHT22;39382;47.168;16.008;2023-03-05T03:14:30;-2.30;99.90
53498;DHT22;39382;47.168;16.008;2023-03-05T03:16:57;-2.30;99.90
53498;DHT22;39382;47.168;16.008;2023-03-05T03:19:23;-2.30;99.90
53498;DHT22;39382;47.168;16.008;2023-03-05T03:21:49;-2.40;99.90
53498;DHT22;39382;47.168;16.008;2023-03-05T03:24:15;-2.40;99.90
53498;DHT22;39382;47.168;16.008;2023-03-05T03:26:40;-1.70;99.90
53498;DHT22;39382;47.168;16.008;2023-03-05T03:29:06;-2.50;99.90
53498;DHT22;39382;47.168;16.008;2023-03-05T03:31:32;-2.50;99.90
53498;DHT22;39382;47.168;16.008;2023-03-05T03:33:57;-2.50;99.90
53498;DHT22;39382;47.168;16.008;2023-03-05T03:36:23;-2.40;99.90
53498;DHT22;39382;47.168;16.008;2023-03-05T03:38:49;-2.50;99.90
53498;DHT22;39382;47.168;16.008;2023-03-05T03:41:15;-2.50;99.90
53498;DHT22;39382;47.168;16.008;2023-03-05T03:43:41;-2.50;99.90
53498;DHT22;39382;47.168;16.008;2023-03-05T03:46:07;-2.50;99.90
53498;DHT22;39382;47.168;16.008;2023-03-05T03:48:32;-2.50;99.90
53498;DHT22;39382;47.168;16.008;2023-03-05T03:50:58;-2.40;99.90
53498;DHT22;39382;47.168;16.008;2023-03-05T03:53:24;-2.30;99.90
53498;DHT22;39382;47.168;16.008;2023-03-05T03:55:49;-2.40;99.90
53498;DHT22;39382;47.168;16.008;2023-03-05T03:58:15;-2.40;99.90
53498;DHT22;39382;47.168;16.008;2023-03-05T04:00:41;-2.50;99.90
53498;DHT22;39382;47.168;16.008;2023-03-05T04:03:07;-2.50;99.90
53498;DHT22;39382;47.168;16.008;2023-03-05T04:05:33;-2.50;99.90
53498;DHT22;39382;47.168;16.008;2023-03-05T04:07:59;-2.60;99.90
53498;DHT22;39382;47.168;16.008;2023-03-05T04:10:26;-2.60;99.90
53498;DHT22;39382;47.168;16.008;2023-03-05T04:12:51;-2.40;99.90
53498;DHT22;39382;47.168;16.008;2023-03-05T04:15:17;-2.60;99.90
53498;DHT22;39382;47.168;16.008;2023-03-05T04:17:43;-2.60;99.90
53498;DHT22;39382;47.168;16.008;2023-03-05T04:20:09;-2.60;99.90
53498;DHT22;39382;47.168;16.008;2023-03-05T04:22:36;-2.60;99.90
53498;DHT22;39382;47.168;16.008;2023-03-05T04:25:02;-2.60;99.90
53498;DHT22;39382;47.168;16.008;2023-03-05T04:27:33;-2.60;99.90
53498;DHT22;39382;47.168;16.008;2023-03-05T04:29:59;-2.60;99.90
53498;DHT22;39382;47.168;16.008;2023-03-05T04:32:25;-2.60;99.90
53498;DHT22;39382;47.168;16.008;2023-03-05T04:34:52;-2.60;99.90
53498;DHT22;39382;47.168;16.008;2023-03-05T04:37:18;-2.70;99.90
53498;DHT22;39382;47.168;16.008;2023-03-05T04:39:44;-2.70;99.90
53498;DHT22;39382;47.168;16.008;2023-03-05T04:42:09;-2.40;99.90
53498;DHT22;39382;47.168;16.008;2023-03-05T04:44:35;-2.60;99.90
53498;DHT22;39382;47.168;16.008;2023-03-05T04:47:01;-2.60;99.90
53498;DHT22;39382;47.168;16.008;2023-03-05T04:49:26;-2.60;99.90
53498;DHT22;39382;47.168;16.008;2023-03-05T04:51:52;-2.60;99.90
53498;DHT22;39382;47.168;16.008;2023-03-05T04:54:18;-2.60;99.90
53498;DHT22;39382;47.168;16.008;2023-03-05T04:56:43;-2.60;99.90
53498;DHT22;39382;47.168;16.008;2023-03-05T04:59:09;-2.60;99.90
53498;DHT22;39382;47.168;16.008;2023-03-05T05:01:34;-2.70;99.90
53498;DHT22;39382;47.168;16.008;2023-03-05T05:04:00;-2.60;99.90
53498;DHT22;39382;47.168;16.008;2023-03-05T05:06:26;-2.70;99.90
53498;DHT22;39382;47.168;16.008;2023-03-05T05:08:52;-2.80;99.90
53498;DHT22;39382;47.168;16.008;2023-03-05T05:11:17;-2.70;99.90
53498;DHT22;39382;47.168;16.008;2023-03-05T05:13:43;-2.70;99.90
53498;DHT22;39382;47.168;16.008;2023-03-05T05:16:09;-2.80;99.90
53498;DHT22;39382;47.168;16.008;2023-03-05T05:18:34;-2.70;99.90
53498;DHT22;39382;47.168;16.008;2023-03-05T05:21:00;-2.70;99.90
53498;DHT22;39382;47.168;16.008;2023-03-05T05:23:26;-2.60;99.90
53498;DHT22;39382;47.168;16.008;2023-03-05T05:25:59;-2.60;99.90
53498;DHT22;39382;47.168;16.008;2023-03-05T05:28:26;-2.60;99.90
53498;DHT22;39382;47.168;16.008;2023-03-05T05:30:52;-2.50;99.90
53498;DHT22;39382;47.168;16.008;2023-03-05T05:33:18;-2.50;99.90
53498;DHT22;39382;47.168;16.008;2023-03-05T05:35:43;-2.50;99.90
53498;DHT22;39382;47.168;16.008;2023-03-05T05:38:09;-2.50;99.90
53498;DHT22;39382;47.168;16.008;2023-03-05T05:40:34;-2.50;99.90
53498;DHT22;39382;47.168;16.008;2023-03-05T05:43:00;-2.50;99.90
53498;DHT22;39382;47.168;16.008;2023-03-05T05:45:26;-2.50;99.90
53498;DHT22;39382;47.168;16.008;2023-03-05T05:47:51;-2.50;99.90
53498;DHT22;39382;47.168;16.008;2023-03-05T05:50:19;-2.40;99.90
53498;DHT22;39382;47.168;16.008;2023-03-05T05:52:44;-2.40;99.90
53498;DHT22;39382;47.168;16.008;2023-03-05T05:55:10;-2.30;99.90
53498;DHT22;39382;47.168;16.008;2023-03-05T05:57:37;-2.30;99.90
53498;DHT22;39382;47.168;16.008;2023-03-05T06:00:06;-2.30;99.90
53498;DHT22;39382;47.168;16.008;2023-03-05T06:02:32;-2.30;99.90
53498;DHT22;39382;47.168;16.008;2023-03-05T06:04:57;-2.20;99.90
53498;DHT22;39382;47.168;16.008;2023-03-05T06:07:23;-2.10;99.90
53498;DHT22;39382;47.168;16.008;2023-03-05T06:09:48;-2.10;99.90
53498;DHT22;39382;47.168;16.008;2023-03-05T06:12:16;-1.80;99.90
53498;DHT22;39382;47.168;16.008;2023-03-05T06:14:41;-1.80;99.90
53498;DHT22;39382;47.168;16.008;2023-03-05T06:17:07;-1.50;99.90
53498;DHT22;39382;47.168;16.008;2023-03-05T06:19:33;-1.20;99.90
53498;DHT22;39382;47.168;16.008;2023-03-05T06:21:58;-1.60;99.90
53498;DHT22;39382;47.168;16.008;2023-03-05T06:24:24;-1.40;99.90
53498;DHT22;39382;47.168;16.008;2023-03-05T06:26:50;-1.40;99.90
53498;DHT22;39382;47.168;16.008;2023-03-05T06:29:15;-1.30;99.90
53498;DHT22;39382;47.168;16.008;2023-03-05T06:31:41;-1.30;99.90
53498;DHT22;39382;47.168;16.008;2023-03-05T06:34:06;-1.20;99.90
53498;DHT22;39382;47.168;16.008;2023-03-05T06:36:32;-1.20;99.90
53498;DHT22;39382;47.168;16.008;2023-03-05T06:38:58;-1.20;99.90
53498;DHT22;39382;47.168;16.008;2023-03-05T06:41:26;-1.30;99.90
53498;DHT22;39382;47.168;16.008;2023-03-05T06:43:53;-1.30;99.90
53498;DHT22;39382;47.168;16.008;2023-03-05T06:46:24;-1.10;99.90
53498;DHT22;39382;47.168;16.008;2023-03-05T06:48:51;-1.10;99.90
53498;DHT22;39382;47.168;16.008;2023-03-05T06:51:25;-1.00;99.90
53498;DHT22;39382;47.168;16.008;2023-03-05T06:53:52;0.30;99.90
53498;DHT22;39382;47.168;16.008;2023-03-05T06:56:18;0.40;99.90
53498;DHT22;39382;47.168;16.008;2023-03-05T06:58:45;0.10;99.90
53498;DHT22;39382;47.168;16.008;2023-03-05T07:01:12;0.30;99.90
53498;DHT22;39382;47.168;16.008;2023-03-05T07:03:38;0.30;99.90
53498;DHT22;39382;47.168;16.008;2023-03-05T07:06:06;0.40;99.90
53498;DHT22;39382;47.168;16.008;2023-03-05T07:08:32;0.50;99.90
53498;DHT22;39382;47.168;16.008;2023-03-05T07:10:58;0.50;99.90
53498;DHT22;39382;47.168;16.008;2023-03-05T07:13:24;0.60;99.90
53498;DHT22;39382;47.168;16.008;2023-03-05T07:15:50;0.60;99.90
53498;DHT22;39382;47.168;16.008;2023-03-05T07:18:16;0.70;99.90
53498;DHT22;39382;47.168;16.008;2023-03-05T07:20:41;0.80;99.90
53498;DHT22;39382;47.168;16.008;2023-03-05T07:23:07;1.10;99.90
53498;DHT22;39382;47.168;16.008;2023-03-05T07:25:35;1.10;99.90
53498;DHT22;39382;47.168;16.008;2023-03-05T07:28:02;1.30;99.90
53498;DHT22;39382;47.168;16.008;2023-03-05T07:30:29;1.50;99.90
53498;DHT22;39382;47.168;16.008;2023-03-05T07:32:55;1.60;99.90
53498;DHT22;39382;47.168;16.008;2023-03-05T07:35:21;1.80;99.90
53498;DHT22;39382;47.168;16.008;2023-03-05T07:37:48;1.90;99.90
53498;DHT22;39382;47.168;16.008;2023-03-05T07:40:14;2.00;99.90
53498;DHT22;39382;47.168;16.008;2023-03-05T07:42:40;2.00;99.90
53498;DHT22;39382;47.168;16.008;2023-03-05T07:45:06;2.00;99.90
53498;DHT22;39382;47.168;16.008;2023-03-05T07:47:32;2.10;99.90
53498;DHT22;39382;47.168;16.008;2023-03-05T07:49:58;2.30;99.90
53498;DHT22;39382;47.168;16.008;2023-03-05T07:52:23;2.40;99.90
53498;DHT22;39382;47.168;16.008;2023-03-05T07:54:49;2.50;99.90
53498;DHT22;39382;47.168;16.008;2023-03-05T07:57:15;2.70;99.90
53498;DHT22;39382;47.168;16.008;2023-03-05T07:59:40;2.80;99.90
53498;DHT22;39382;47.168;16.008;2023-03-05T08:02:09;3.00;99.90
53498;DHT22;39382;47.168;16.008;2023-03-05T08:04:36;3.10;99.90
53498;DHT22;39382;47.168;16.008;2023-03-05T08:07:02;3.30;99.90
53498;DHT22;39382;47.168;16.008;2023-03-05T08:09:28;3.20;99.90
53498;DHT22;39382;47.168;16.008;2023-03-05T08:11:54;3.40;99.90
53498;DHT22;39382;47.168;16.008;2023-03-05T08:14:19;3.50;99.90
53498;DHT22;39382;47.168;16.008;2023-03-05T08:16:45;3.50;99.90
53498;DHT22;39382;47.168;16.008;2023-03-05T08:19:11;3.50;99.90
53498;DHT22;39382;47.168;16.008;2023-03-05T08:21:37;3.70;99.90
53498;DHT22;39382;47.168;16.008;2023-03-05T08:24:06;3.80;99.90
53498;DHT22;39382;47.168;16.008;2023-03-05T08:26:34;3.80;99.90
53498;DHT22;39382;47.168;16.008;2023-03-05T08:29:00;4.10;99.90
53498;DHT22;39382;47.168;16.008;2023-03-05T08:31:27;4.10;99.90
53498;DHT22;39382;47.168;16.008;2023-03-05T08:33:55;4.20;99.90
53498;DHT22;39382;47.168;16.008;2023-03-05T08:36:21;4.40;99.90
53498;DHT22;39382;47.168;16.008;2023-03-05T08:38:47;4.60;99.90
53498;DHT22;39382;47.168;16.008;2023-03-05T08:41:14;4.70;99.90
53498;DHT22;39382;47.168;16.008;2023-03-05T08:43:40;4.80;99.90
53498;DHT22;39382;47.168;16.008;2023-03-05T08:46:06;4.90;99.90
53498;DHT22;39382;47.168;16.008;2023-03-05T08:48:32;4.90;99.90
53498;DHT22;39382;47.168;16.008;2023-03-05T08:51:04;5.00;99.90
53498;DHT22;39382;47.168;16.008;2023-03-05T08:53:29;5.30;99.90
53498;DHT22;39382;47.168;16.008;2023-03-05T08:55:56;5.70;99.90
53498;DHT22;39382;47.168;16.008;2023-03-05T08:58:23;6.10;99.90
53498;DHT22;39382;47.168;16.008;2023-03-05T09:00:49;6.40;99.90
53498;DHT22;39382;47.168;16.008;2023-03-05T09:03:14;6.70;99.00
53498;DHT22;39382;47.168;16.008;2023-03-05T09:05:40;6.90;99.30
53498;DHT22;39382;47.168;16.008;2023-03-05T09:08:06;6.90;98.10
53498;DHT22;39382;47.168;16.008;2023-03-05T09:10:31;7.10;97.20
53498;DHT22;39382;47.168;16.008;2023-03-05T09:12:57;7.10;96.40
53498;DHT22;39382;47.168;16.008;2023-03-05T09:15:23;7.20;96.00
53498;DHT22;39382;47.168;16.008;2023-03-05T09:17:48;7.30;95.60
53498;DHT22;39382;47.168;16.008;2023-03-05T09:20:14;7.20;95.60
53498;DHT22;39382;47.168;16.008;2023-03-05T09:22:40;7.20;94.60
53498;DHT22;39382;47.168;16.008;2023-03-05T09:25:06;7.30;94.50
53498;DHT22;39382;47.168;16.008;2023-03-05T09:27:33;7.20;94.50
53498;DHT22;39382;47.168;16.008;2023-03-05T09:29:59;7.20;94.40
53498;DHT22;39382;47.168;16.008;2023-03-05T09:32:25;7.30;95.40
53498;DHT22;39382;47.168;16.008;2023-03-05T09:34:50;7.30;95.50
53498;DHT22;39382;47.168;16.008;2023-03-05T09:37:16;7.40;95.70
53498;DHT22;39382;47.168;16.008;2023-03-05T09:39:41;7.60;95.20
53498;DHT22;39382;47.168;16.008;2023-03-05T09:42:19;7.60;94.80
53498;DHT22;39382;47.168;16.008;2023-03-05T09:50:39;7.70;94.30
53498;DHT22;39382;47.168;16.008;2023-03-05T09:56:03;7.80;94.10
53498;DHT22;39382;47.168;16.008;2023-03-05T09:58:39;7.90;94.60
53498;DHT22;39382;47.168;16.008;2023-03-05T10:01:42;8.10;94.30
53498;DHT22;39382;47.168;16.008;2023-03-05T10:04:26;8.30;92.20
53498;DHT22;39382;47.168;16.008;2023-03-05T10:07:22;8.40;92.90
53498;DHT22;39382;47.168;16.008;2023-03-05T10:09:55;8.40;93.30
53498;DHT22;39382;47.168;16.008;2023-03-05T10:15:20;8.00;94.00
53498;DHT22;39382;47.168;16.008;2023-03-05T10:18:50;7.90;93.00
53498;DHT22;39382;47.168;16.008;2023-03-05T10:20:56;7.80;93.00
53498;DHT22;39382;47.168;16.008;2023-03-05T10:24:13;8.00;93.20
53498;DHT22;39382;47.168;16.008;2023-03-05T10:26:57;8.10;93.10
53498;DHT22;39382;47.168;16.008;2023-03-05T10:29:35;8.40;94.10
53498;DHT22;39382;47.168;16.008;2023-03-05T10:45:52;9.10;88.30
53498;DHT22;39382;47.168;16.008;2023-03-05T10:51:19;9.20;90.00
53498;DHT22;39382;47.168;16.008;2023-03-05T10:53:58;9.30;87.70
53498;DHT22;39382;47.168;16.008;2023-03-05T10:56:27;9.50;84.70
53498;DHT22;39382;47.168;16.008;2023-03-05T10:58:54;9.60;83.30
53498;DHT22;39382;47.168;16.008;2023-03-05T11:01:27;9.70;83.20
53498;DHT22;39382;47.168;16.008;2023-03-05T11:04:01;9.80;82.10
53498;DHT22;39382;47.168;16.008;2023-03-05T11:06:35;9.80;81.40
53498;DHT22;39382;47.168;16.008;2023-03-05T11:11:39;9.30;81.60
53498;DHT22;39382;47.168;16.008;2023-03-05T11:14:04;9.30;81.20
53498;DHT22;39382;47.168;16.008;2023-03-05T11:16:33;9.20;81.00
53498;DHT22;39382;47.168;16.008;2023-03-05T11:19:20;9.40;81.10
53498;DHT22;39382;47.168;16.008;2023-03-05T11:24:35;9.10;78.90
53498;DHT22;39382;47.168;16.008;2023-03-05T11:27:01;9.20;79.20
53498;DHT22;39382;47.168;16.008;2023-03-05T11:29:47;9.30;77.50
53498;DHT22;39382;47.168;16.008;2023-03-05T11:32:22;9.30;74.40
53498;DHT22;39382;47.168;16.008;2023-03-05T11:34:48;9.40;75.30
53498;DHT22;39382;47.168;16.008;2023-03-05T11:37:28;9.70;76.90
53498;DHT22;39382;47.168;16.008;2023-03-05T11:40:15;10.10;72.90
53498;DHT22;39382;47.168;16.008;2023-03-05T11:42:43;10.40;73.60
53498;DHT22;39382;47.168;16.008;2023-03-05T11:45:16;10.70;69.90
53498;DHT22;39382;47.168;16.008;2023-03-05T11:48:27;10.80;69.70
53498;DHT22;39382;47.168;16.008;2023-03-05T11:50:50;10.60;68.40
53498;DHT22;39382;47.168;16.008;2023-03-05T11:53:24;10.60;69.10
53498;DHT22;39382;47.168;16.008;2023-03-05T11:58:50;10.60;68.20
53498;DHT22;39382;47.168;16.008;2023-03-05T12:01:21;10.50;69.20
53498;DHT22;39382;47.168;16.008;2023-03-05T12:03:49;10.50;69.00
53498;DHT22;39382;47.168;16.008;2023-03-05T12:09:08;10.40;67.80
53498;DHT22;39382;47.168;16.008;2023-03-05T12:11:36;10.50;67.70
53498;DHT22;39382;47.168;16.008;2023-03-05T12:14:35;10.50;66.70
53498;DHT22;39382;47.168;16.008;2023-03-05T12:22:37;10.30;69.80
53498;DHT22;39382;47.168;16.008;2023-03-05T12:27:52;10.50;68.40
53498;DHT22;39382;47.168;16.008;2023-03-05T12:33:02;10.40;67.00
53498;DHT22;39382;47.168;16.008;2023-03-05T12:35:34;10.50;68.30
53498;DHT22;39382;47.168;16.008;2023-03-05T12:38:32;10.60;67.20
53498;DHT22;39382;47.168;16.008;2023-03-05T12:43:42;11.00;67.10
53498;DHT22;39382;47.168;16.008;2023-03-05T12:46:26;11.20;67.30
53498;DHT22;39382;47.168;16.008;2023-03-05T12:51:41;11.00;66.00
53498;DHT22;39382;47.168;16.008;2023-03-05T12:54:34;11.00;66.30
53498;DHT22;39382;47.168;16.008;2023-03-05T12:57:05;10.90;65.50
53498;DHT22;39382;47.168;16.008;2023-03-05T13:02:42;10.10;67.50
53498;DHT22;39382;47.168;16.008;2023-03-05T13:05:31;9.80;67.80
53498;DHT22;39382;47.168;16.008;2023-03-05T13:08:16;9.80;68.90
53498;DHT22;39382;47.168;16.008;2023-03-05T13:11:00;10.00;69.80
53498;DHT22;39382;47.168;16.008;2023-03-05T13:13:28;10.00;69.80
53498;DHT22;39382;47.168;16.008;2023-03-05T13:15:55;10.10;67.80
53498;DHT22;39382;47.168;16.008;2023-03-05T13:18:24;10.00;68.10
53498;DHT22;39382;47.168;16.008;2023-03-05T13:21:13;10.20;69.50
53498;DHT22;39382;47.168;16.008;2023-03-05T13:23:50;10.20;67.80
53498;DHT22;39382;47.168;16.008;2023-03-05T13:26:23;10.00;68.00
53498;DHT22;39382;47.168;16.008;2023-03-05T13:29:25;9.90;68.90
53498;DHT22;39382;47.168;16.008;2023-03-05T13:34:36;9.70;68.60
53498;DHT22;39382;47.168;16.008;2023-03-05T13:37:14;9.60;67.60
53498;DHT22;39382;47.168;16.008;2023-03-05T13:39:47;9.50;68.90
53498;DHT22;39382;47.168;16.008;2023-03-05T13:42:25;9.40;71.70
53498;DHT22;39382;47.168;16.008;2023-03-05T13:44:58;9.40;72.70
53498;DHT22;39382;47.168;16.008;2023-03-05T13:47:29;9.40;73.10
53498;DHT22;39382;47.168;16.008;2023-03-05T13:49:59;9.30;76.10
53498;DHT22;39382;47.168;16.008;2023-03-05T13:52:31;9.30;77.10
53498;DHT22;39382;47.168;16.008;2023-03-05T13:55:01;9.30;78.20
53498;DHT22;39382;47.168;16.008;2023-03-05T13:57:33;9.30;80.30
53498;DHT22;39382;47.168;16.008;2023-03-05T13:59:59;9.30;80.70
53498;DHT22;39382;47.168;16.008;2023-03-05T14:02:26;9.20;81.00
53498;DHT22;39382;47.168;16.008;2023-03-05T14:04:53;9.30;82.20
53498;DHT22;39382;47.168;16.008;2023-03-05T14:09:48;9.30;82.10
53498;DHT22;39382;47.168;16.008;2023-03-05T14:14:49;9.40;81.80
53498;DHT22;39382;47.168;16.008;2023-03-05T14:17:40;9.50;81.60
53498;DHT22;39382;47.168;16.008;2023-03-05T14:22:36;9.60;80.40
53498;DHT22;39382;47.168;16.008;2023-03-05T14:25:03;9.60;78.90
53498;DHT22;39382;47.168;16.008;2023-03-05T14:27:34;9.50;78.60
53498;DHT22;39382;47.168;16.008;2023-03-05T14:30:03;9.30;79.10
53498;DHT22;39382;47.168;16.008;2023-03-05T14:32:32;9.20;79.30
53498;DHT22;39382;47.168;16.008;2023-03-05T14:35:00;9.20;79.60
53498;DHT22;39382;47.168;16.008;2023-03-05T14:37:35;9.20;79.40
53498;DHT22;39382;47.168;16.008;2023-03-05T14:40:04;9.20;79.60
53498;DHT22;39382;47.168;16.008;2023-03-05T14:42:59;9.30;79.70
53498;DHT22;39382;47.168;16.008;2023-03-05T14:45:28;9.30;79.30
53498;DHT22;39382;47.168;16.008;2023-03-05T14:47:56;9.40;79.10
53498;DHT22;39382;47.168;16.008;2023-03-05T14:50:23;9.50;78.50
53498;DHT22;39382;47.168;16.008;2023-03-05T14:52:53;9.50;77.60
53498;DHT22;39382;47.168;16.008;2023-03-05T14:55:21;9.30;78.60
53498;DHT22;39382;47.168;16.008;2023-03-05T14:57:48;9.30;78.30
53498;DHT22;39382;47.168;16.008;2023-03-05T15:00:26;9.10;78.90
53498;DHT22;39382;47.168;16.008;2023-03-05T15:02:53;9.10;78.30
53498;DHT22;39382;47.168;16.008;2023-03-05T15:05:19;9.00;78.30
53498;DHT22;39382;47.168;16.008;2023-03-05T15:07:45;8.90;78.70
53498;DHT22;39382;47.168;16.008;2023-03-05T15:10:15;8.90;79.10
53498;DHT22;39382;47.168;16.008;2023-03-05T15:12:42;8.90;78.60
53498;DHT22;39382;47.168;16.008;2023-03-05T15:15:12;8.90;79.20
53498;DHT22;39382;47.168;16.008;2023-03-05T15:17:39;9.00;79.40
53498;DHT22;39382;47.168;16.008;2023-03-05T15:20:13;9.10;79.50
53498;DHT22;39382;47.168;16.008;2023-03-05T15:22:39;8.90;78.60
53498;DHT22;39382;47.168;16.008;2023-03-05T15:25:05;8.80;78.70
53498;DHT22;39382;47.168;16.008;2023-03-05T15:27:31;8.70;79.30
53498;DHT22;39382;47.168;16.008;2023-03-05T15:29:56;8.70;79.60
53498;DHT22;39382;47.168;16.008;2023-03-05T15:32:26;8.60;79.70
53498;DHT22;39382;47.168;16.008;2023-03-05T15:34:52;8.50;80.30
53498;DHT22;39382;47.168;16.008;2023-03-05T15:37:18;8.50;80.20
53498;DHT22;39382;47.168;16.008;2023-03-05T15:39:43;8.40;80.00
53498;DHT22;39382;47.168;16.008;2023-03-05T15:42:09;8.50;80.30
53498;DHT22;39382;47.168;16.008;2023-03-05T15:44:34;8.40;80.30
53498;DHT22;39382;47.168;16.008;2023-03-05T15:47:00;8.40;80.70
53498;DHT22;39382;47.168;16.008;2023-03-05T15:49:26;8.20;81.20
53498;DHT22;39382;47.168;16.008;2023-03-05T15:51:51;8.20;81.60
53498;DHT22;39382;47.168;16.008;2023-03-05T15:54:19;8.10;81.80
53498;DHT22;39382;47.168;16.008;2023-03-05T15:56:45;8.10;81.90
53498;DHT22;39382;47.168;16.008;2023-03-05T15:59:10;8.10;82.80
53498;DHT22;39382;47.168;16.008;2023-03-05T16:01:37;8.10;83.50
53498;DHT22;39382;47.168;16.008;2023-03-05T16:04:04;8.00;83.60
53498;DHT22;39382;47.168;16.008;2023-03-05T16:06:31;7.90;83.70
53498;DHT22;39382;47.168;16.008;2023-03-05T16:09:01;7.90;84.00
53498;DHT22;39382;47.168;16.008;2023-03-05T16:11:28;7.80;84.30
53498;DHT22;39382;47.168;16.008;2023-03-05T16:13:56;7.80;85.40
53498;DHT22;39382;47.168;16.008;2023-03-05T16:16:22;7.70;86.40
53498;DHT22;39382;47.168;16.008;2023-03-05T16:18:49;7.70;86.90
53498;DHT22;39382;47.168;16.008;2023-03-05T16:21:15;7.70;85.50
53498;DHT22;39382;47.168;16.008;2023-03-05T16:23:41;7.70;84.80
53498;DHT22;39382;47.168;16.008;2023-03-05T16:26:08;7.60;85.10
53498;DHT22;39382;47.168;16.008;2023-03-05T16:28:35;7.50;85.40
53498;DHT22;39382;47.168;16.008;2023-03-05T16:31:01;7.30;85.90
53498;DHT22;39382;47.168;16.008;2023-03-05T16:33:27;7.00;86.80
53498;DHT22;39382;47.168;16.008;2023-03-05T16:36:26;7.00;87.40
53498;DHT22;39382;47.168;16.008;2023-03-05T16:38:54;6.90;88.00
53498;DHT22;39382;47.168;16.008;2023-03-05T16:41:20;6.80;88.20
53498;DHT22;39382;47.168;16.008;2023-03-05T16:43:47;6.70;88.70
53498;DHT22;39382;47.168;16.008;2023-03-05T16:46:13;6.60;89.20
53498;DHT22;39382;47.168;16.008;2023-03-05T16:48:42;6.60;89.60